sensor_id;sensor_type;location;lat;lon;timestamp;P1;durP1;ratioP1;P2;durP2;ratioP2
12719;SDS011;6424;48.520;11.228;2024-03-06T00:02:43;22.10;;;18.30;;
12719;SDS011;6424;48.520;11.228;2024-03-06T00:05:27;20.27;;;17.93;;
12719;SDS011;6424;48.520;11.228;2024-03-06T00:08:11;21.13;;;17.83;;
12719;SDS011;6424;48.520;11.228;2024-03-06T00:10:56;19.53;;;17.33;;
12719;SDS011;6424;48.520;11.228;2024-03-06T00:13:40;21.87;;;17.47;;
12719;SDS011;6424;48.520;11.228;2024-03-06T00:16:25;19.20;;;17.10;;
12719;SDS011;6424;48.520;11.228;2024-03-06T00:19:10;19.83;;;17.60;;
12719;SDS011;6424;48.520;11.228;2024-03-06T00:21:55;20.80;;;16.80;;
12719;SDS011;6424;48.520;11.228;2024-03-06T00:24:39;19.73;;;17.67;;
12719;SDS011;6424;48.520;11.228;2024-03-06T00:27:24;19.17;;;16.53;;
12719;SDS011;6424;48.520;11.228;2024-03-06T00:30:08;20.00;;;17.50;;
12719;SDS011;6424;48.520;11.228;2024-03-06T00:32:53;20.63;;;18.43;;
12719;SDS011;6424;48.520;11.228;2024-03-06T00:35:37;22.67;;;18.07;;
12719;SDS011;6424;48.520;11.228;2024-03-06T00:38:21;21.07;;;18.33;;
12719;SDS011;6424;48.520;11.228;2024-03-06T00:41:05;20.17;;;18.00;;
12719;SDS011;6424;48.520;11.228;2024-03-06T00:43:50;21.50;;;17.63;;
12719;SDS011;6424;48.520;11.228;2024-03-06T00:46:35;21.40;;;17.97;;
12719;SDS011;6424;48.520;11.228;2024-03-06T00:49:19;22.73;;;18.70;;
12719;SDS011;6424;48.520;11.228;2024-03-06T00:52:03;22.20;;;18.40;;
12719;SDS011;6424;48.520;11.228;2024-03-06T00:54:48;22.97;;;18.60;;
12719;SDS011;6424;48.520;11.228;2024-03-06T00:57:32;21.63;;;17.93;;
12719;SDS011;6424;48.520;11.228;2024-03-06T01:00:17;21.13;;;18.47;;
12719;SDS011;6424;48.520;11.228;2024-03-06T01:03:03;20.43;;;17.97;;
12719;SDS011;6424;48.520;11.228;2024-03-06T01:05:48;23.37;;;19.33;;
12719;SDS011;6424;48.520;11.228;2024-03-06T01:08:32;21.50;;;19.10;;
12719;SDS011;6424;48.520;11.228;2024-03-06T01:11:17;23.20;;;20.27;;
12719;SDS011;6424;48.520;11.228;2024-03-06T01:14:01;23.80;;;20.07;;
12719;SDS011;6424;48.520;11.228;2024-03-06T01:16:46;24.07;;;20.23;;
12719;SDS011;6424;48.520;11.228;2024-03-06T01:19:31;26.20;;;20.20;;
12719;SDS011;6424;48.520;11.228;2024-03-06T01:22:15;26.13;;;21.77;;
12719;SDS011;6424;48.520;11.228;2024-03-06T01:24:59;27.00;;;20.77;;
12719;SDS011;6424;48.520;11.228;2024-03-06T01:27:44;25.43;;;20.67;;
12719;SDS011;6424;48.520;11.228;2024-03-06T01:30:29;23.70;;;20.73;;
12719;SDS011;6424;48.520;11.228;2024-03-06T01:33:14;27.33;;;21.73;;
12719;SDS011;6424;48.520;11.228;2024-03-06T01:35:58;24.47;;;20.73;;
12719;SDS011;6424;48.520;11.228;2024-03-06T01:38:42;26.37;;;20.90;;
12719;SDS011;6424;48.520;11.228;2024-03-06T01:41:29;26.90;;;21.47;;
12719;SDS011;6424;48.520;11.228;2024-03-06T01:44:14;26.67;;;21.80;;
12719;SDS011;6424;48.520;11.228;2024-03-06T01:46:59;28.30;;;23.63;;
12719;SDS011;6424;48.520;11.228;2024-03-06T01:49:43;28.73;;;22.57;;
12719;SDS011;6424;48.520;11.228;2024-03-06T01:52:28;29.93;;;23.53;;
12719;SDS011;6424;48.520;11.228;2024-03-06T01:55:12;30.07;;;23.50;;
12719;SDS011;6424;48.520;11.228;2024-03-06T01:57:59;34.73;;;24.87;;
12719;SDS011;6424;48.520;11.228;2024-03-06T02:00:44;30.90;;;24.20;;
12719;SDS011;6424;48.520;11.228;2024-03-06T02:03:27;30.50;;;23.77;;
12719;SDS011;6424;48.520;11.228;2024-03-06T02:06:15;32.97;;;25.10;;
12719;SDS011;6424;48.520;11.228;2024-03-06T02:09:03;32.03;;;25.20;;
12719;SDS011;6424;48.520;11.228;2024-03-06T02:11:47;34.30;;;25.40;;
12719;SDS011;6424;48.520;11.228;2024-03-06T02:14:34;36.47;;;26.43;;
12719;SDS011;6424;48.520;11.228;2024-03-06T02:17:20;34.90;;;26.70;;
12719;SDS011;6424;48.520;11.228;2024-03-06T02:20:05;34.10;;;24.77;;
12719;SDS011;6424;48.520;11.228;2024-03-06T02:22:51;36.37;;;25.53;;
12719;SDS011;6424;48.520;11.228;2024-03-06T02:25:35;36.13;;;25.43;;
12719;SDS011;6424;48.520;11.228;2024-03-06T02:28:20;36.80;;;26.43;;
12719;SDS011;6424;48.520;11.228;2024-03-06T02:31:04;32.70;;;24.90;;
12719;SDS011;6424;48.520;11.228;2024-03-06T02:33:50;35.80;;;27.40;;
12719;SDS011;6424;48.520;11.228;2024-03-06T02:36:34;33.83;;;25.73;;
12719;SDS011;6424;48.520;11.228;2024-03-06T02:39:20;36.20;;;26.07;;
12719;SDS011;6424;48.520;11.228;2024-03-06T02:42:04;36.67;;;25.77;;
12719;SDS011;6424;48.520;11.228;2024-03-06T02:44:49;37.80;;;25.30;;
12719;SDS011;6424;48.520;11.228;2024-03-06T02:47:33;34.97;;;24.23;;
12719;SDS011;6424;48.520;11.228;2024-03-06T02:50:17;36.27;;;26.73;;
12719;SDS011;6424;48.520;11.228;2024-03-06T02:53:02;36.03;;;25.27;;
12719;SDS011;6424;48.520;11.228;2024-03-06T02:55:47;34.63;;;24.63;;
12719;SDS011;6424;48.520;11.228;2024-03-06T02:58:32;33.77;;;23.77;;
12719;SDS011;6424;48.520;11.228;2024-03-06T03:01:18;36.80;;;26.17;;
12719;SDS011;6424;48.520;11.228;2024-03-06T03:04:03;35.03;;;25.60;;
12719;SDS011;6424;48.520;11.228;2024-03-06T03:06:48;35.03;;;24.90;;
12719;SDS011;6424;48.520;11.228;2024-03-06T03:09:32;32.13;;;23.40;;
12719;SDS011;6424;48.520;11.228;2024-03-06T03:12:16;36.60;;;25.40;;
12719;SDS011;6424;48.520;11.228;2024-03-06T03:15:01;34.43;;;23.87;;
12719;SDS011;6424;48.520;11.228;2024-03-06T03:17:45;33.87;;;24.03;;
12719;SDS011;6424;48.520;11.228;2024-03-06T03:20:29;35.53;;;24.20;;
12719;SDS011;6424;48.520;11.228;2024-03-06T03:23:14;33.20;;;23.73;;
12719;SDS011;6424;48.520;11.228;2024-03-06T03:26:00;33.67;;;24.27;;
12719;SDS011;6424;48.520;11.228;2024-03-06T03:28:45;32.50;;;24.07;;
12719;SDS011;6424;48.520;11.228;2024-03-06T03:31:29;33.27;;;24.03;;
12719;SDS011;6424;48.520;11.228;2024-03-06T03:34:13;32.67;;;23.63;;
12719;SDS011;6424;48.520;11.228;2024-03-06T03:36:58;34.97;;;23.83;;
12719;SDS011;6424;48.520;11.228;2024-03-06T03:39:45;36.83;;;24.63;;
12719;SDS011;6424;48.520;11.228;2024-03-06T03:42:29;36.00;;;24.40;;
12719;SDS011;6424;48.520;11.228;2024-03-06T03:45:14;37.30;;;25.10;;
12719;SDS011;6424;48.520;11.228;2024-03-06T03:47:59;38.27;;;24.97;;
12719;SDS011;6424;48.520;11.228;2024-03-06T03:50:49;36.57;;;25.13;;
12719;SDS011;6424;48.520;11.228;2024-03-06T03:53:33;39.93;;;25.83;;
12719;SDS011;6424;48.520;11.228;2024-03-06T03:56:18;42.87;;;27.53;;
12719;SDS011;6424;48.520;11.228;2024-03-06T03:59:02;39.67;;;25.13;;
12719;SDS011;6424;48.520;11.228;2024-03-06T04:01:47;41.40;;;25.93;;
12719;SDS011;6424;48.520;11.228;2024-03-06T04:04:31;38.70;;;24.80;;
12719;SDS011;6424;48.520;11.228;2024-03-06T04:07:17;36.17;;;24.60;;
12719;SDS011;6424;48.520;11.228;2024-03-06T04:10:03;42.63;;;26.03;;
12719;SDS011;6424;48.520;11.228;2024-03-06T04:12:47;39.90;;;27.10;;
12719;SDS011;6424;48.520;11.228;2024-03-06T04:15:32;36.97;;;24.87;;
12719;SDS011;6424;48.520;11.228;2024-03-06T04:18:16;40.60;;;26.60;;
12719;SDS011;6424;48.520;11.228;2024-03-06T04:21:04;39.03;;;26.37;;
12719;SDS011;6424;48.520;11.228;2024-03-06T04:23:49;41.23;;;26.57;;
12719;SDS011;6424;48.520;11.228;2024-03-06T04:26:33;39.03;;;25.20;;
12719;SDS011;6424;48.520;11.228;2024-03-06T04:29:17;44.20;;;27.60;;
12719;SDS011;6424;48.520;11.228;2024-03-06T04:32:01;49.10;;;28.50;;
12719;SDS011;6424;48.520;11.228;2024-03-06T04:34:46;50.93;;;29.40;;
12719;SDS011;6424;48.520;11.228;2024-03-06T04:37:30;53.60;;;28.43;;
12719;SDS011;6424;48.520;11.228;2024-03-06T04:40:17;48.53;;;28.53;;
12719;SDS011;6424;48.520;11.228;2024-03-06T04:43:01;51.47;;;27.87;;
12719;SDS011;6424;48.520;11.228;2024-03-06T04:45:45;46.77;;;27.10;;
12719;SDS011;6424;48.520;11.228;2024-03-06T04:48:30;48.90;;;28.17;;
12719;SDS011;6424;48.520;11.228;2024-03-06T04:51:14;53.63;;;28.07;;
12719;SDS011;6424;48.520;11.228;2024-03-06T04:53:58;51.83;;;28.43;;
12719;SDS011;6424;48.520;11.228;2024-03-06T04:56:42;50.07;;;27.03;;
12719;SDS011;6424;48.520;11.228;2024-03-06T04:59:26;52.60;;;27.27;;
12719;SDS011;6424;48.520;11.228;2024-03-06T05:02:11;53.37;;;28.73;;
12719;SDS011;6424;48.520;11.228;2024-03-06T05:04:55;47.27;;;28.73;;
12719;SDS011;6424;48.520;11.228;2024-03-06T05:07:39;53.53;;;29.33;;
12719;SDS011;6424;48.520;11.228;2024-03-06T05:10:24;50.93;;;27.80;;
12719;SDS011;6424;48.520;11.228;2024-03-06T05:13:10;49.33;;;27.70;;
12719;SDS011;6424;48.520;11.228;2024-03-06T05:15:54;47.57;;;27.30;;
12719;SDS011;6424;48.520;11.228;2024-03-06T05:18:38;52.87;;;28.77;;
12719;SDS011;6424;48.520;11.228;2024-03-06T05:21:22;49.63;;;26.87;;
12719;SDS011;6424;48.520;11.228;2024-03-06T05:24:06;49.83;;;27.77;;
12719;SDS011;6424;48.520;11.228;2024-03-06T05:26:51;49.73;;;28.33;;
12719;SDS011;6424;48.520;11.228;2024-03-06T05:29:35;54.90;;;28.70;;
12719;SDS011;6424;48.520;11.228;2024-03-06T05:32:20;54.70;;;28.90;;
12719;SDS011;6424;48.520;11.228;2024-03-06T05:35:04;49.23;;;26.67;;
12719;SDS011;6424;48.520;11.228;2024-03-06T05:37:49;53.37;;;28.80;;
12719;SDS011;6424;48.520;11.228;2024-03-06T05:40:33;48.60;;;27.23;;
12719;SDS011;6424;48.520;11.228;2024-03-06T05:43:21;53.70;;;28.83;;
12719;SDS011;6424;48.520;11.228;2024-03-06T05:46:05;56.40;;;27.60;;
12719;SDS011;6424;48.520;11.228;2024-03-06T05:48:49;60.93;;;28.63;;
12719;SDS011;6424;48.520;11.228;2024-03-06T05:51:34;54.90;;;27.90;;
12719;SDS011;6424;48.520;11.228;2024-03-06T05:54:20;54.37;;;28.03;;
12719;SDS011;6424;48.520;11.228;2024-03-06T05:57:05;55.70;;;28.10;;
12719;SDS011;6424;48.520;11.228;2024-03-06T05:59:51;58.30;;;28.33;;
12719;SDS011;6424;48.520;11.228;2024-03-06T06:02:35;57.10;;;27.53;;
12719;SDS011;6424;48.520;11.228;2024-03-06T06:05:19;53.90;;;28.67;;
12719;SDS011;6424;48.520;11.228;2024-03-06T06:08:06;54.67;;;27.87;;
12719;SDS011;6424;48.520;11.228;2024-03-06T06:10:51;57.43;;;29.40;;
12719;SDS011;6424;48.520;11.228;2024-03-06T06:13:35;58.00;;;28.70;;
12719;SDS011;6424;48.520;11.228;2024-03-06T06:16:19;56.93;;;29.93;;
12719;SDS011;6424;48.520;11.228;2024-03-06T06:19:03;50.93;;;27.60;;
12719;SDS011;6424;48.520;11.228;2024-03-06T06:21:50;56.37;;;28.43;;
12719;SDS011;6424;48.520;11.228;2024-03-06T06:24:36;57.40;;;28.07;;
12719;SDS011;6424;48.520;11.228;2024-03-06T06:27:22;53.40;;;27.37;;
12719;SDS011;6424;48.520;11.228;2024-03-06T06:30:06;54.63;;;28.20;;
12719;SDS011;6424;48.520;11.228;2024-03-06T06:32:54;56.40;;;27.60;;
12719;SDS011;6424;48.520;11.228;2024-03-06T06:35:38;57.77;;;29.67;;
12719;SDS011;6424;48.520;11.228;2024-03-06T06:38:22;52.77;;;28.87;;
12719;SDS011;6424;48.520;11.228;2024-03-06T06:41:07;53.30;;;27.73;;
12719;SDS011;6424;48.520;11.228;2024-03-06T06:43:51;59.27;;;29.57;;
12719;SDS011;6424;48.520;11.228;2024-03-06T06:46:36;56.10;;;28.80;;
12719;SDS011;6424;48.520;11.228;2024-03-06T06:49:20;51.87;;;27.13;;
12719;SDS011;6424;48.520;11.228;2024-03-06T06:52:05;58.20;;;29.90;;
12719;SDS011;6424;48.520;11.228;2024-03-06T06:54:49;56.10;;;29.33;;
12719;SDS011;6424;48.520;11.228;2024-03-06T06:57:34;59.67;;;28.77;;
12719;SDS011;6424;48.520;11.228;2024-03-06T07:00:18;57.20;;;30.43;;
12719;SDS011;6424;48.520;11.228;2024-03-06T07:03:05;55.20;;;28.87;;
12719;SDS011;6424;48.520;11.228;2024-03-06T07:05:50;58.23;;;31.47;;
12719;SDS011;6424;48.520;11.228;2024-03-06T07:08:34;53.27;;;29.20;;
12719;SDS011;6424;48.520;11.228;2024-03-06T07:11:19;58.93;;;29.10;;
12719;SDS011;6424;48.520;11.228;2024-03-06T07:14:04;55.20;;;28.50;;
12719;SDS011;6424;48.520;11.228;2024-03-06T07:16:48;65.53;;;32.10;;
12719;SDS011;6424;48.520;11.228;2024-03-06T07:19:32;53.17;;;27.40;;
12719;SDS011;6424;48.520;11.228;2024-03-06T07:22:16;54.03;;;29.97;;
12719;SDS011;6424;48.520;11.228;2024-03-06T07:25:01;55.73;;;28.90;;
12719;SDS011;6424;48.520;11.228;2024-03-06T07:27:46;57.13;;;31.17;;
12719;SDS011;6424;48.520;11.228;2024-03-06T07:30:30;51.63;;;28.67;;
12719;SDS011;6424;48.520;11.228;2024-03-06T07:33:14;56.63;;;29.27;;
12719;SDS011;6424;48.520;11.228;2024-03-06T07:35:59;54.23;;;30.47;;
12719;SDS011;6424;48.520;11.228;2024-03-06T07:38:43;59.40;;;30.67;;
12719;SDS011;6424;48.520;11.228;2024-03-06T07:41:27;59.30;;;31.30;;
12719;SDS011;6424;48.520;11.228;2024-03-06T07:44:11;57.53;;;32.17;;
12719;SDS011;6424;48.520;11.228;2024-03-06T07:46:56;60.53;;;31.80;;
12719;SDS011;6424;48.520;11.228;2024-03-06T07:49:40;57.40;;;31.50;;
12719;SDS011;6424;48.520;11.228;2024-03-06T07:52:25;64.93;;;32.40;;
12719;SDS011;6424;48.520;11.228;2024-03-06T07:55:09;59.63;;;31.53;;
12719;SDS011;6424;48.520;11.228;2024-03-06T07:57:53;54.73;;;29.80;;
12719;SDS011;6424;48.520;11.228;2024-03-06T08:00:37;53.47;;;28.80;;
12719;SDS011;6424;48.520;11.228;2024-03-06T08:03:22;52.87;;;28.70;;
12719;SDS011;6424;48.520;11.228;2024-03-06T08:06:08;47.00;;;26.90;;
12719;SDS011;6424;48.520;11.228;2024-03-06T08:08:53;47.27;;;28.33;;
12719;SDS011;6424;48.520;11.228;2024-03-06T08:11:37;46.97;;;27.93;;
12719;SDS011;6424;48.520;11.228;2024-03-06T08:14:21;45.10;;;25.50;;
12719;SDS011;6424;48.520;11.228;2024-03-06T08:17:07;38.83;;;25.57;;
12719;SDS011;6424;48.520;11.228;2024-03-06T08:19:51;41.73;;;25.23;;
12719;SDS011;6424;48.520;11.228;2024-03-06T08:22:38;39.20;;;25.03;;
12719;SDS011;6424;48.520;11.228;2024-03-06T08:25:24;39.93;;;24.47;;
12719;SDS011;6424;48.520;11.228;2024-03-06T08:28:08;43.17;;;25.23;;
12719;SDS011;6424;48.520;11.228;2024-03-06T08:30:53;37.43;;;24.73;;
12719;SDS011;6424;48.520;11.228;2024-03-06T08:33:38;38.23;;;23.20;;
12719;SDS011;6424;48.520;11.228;2024-03-06T08:36:22;44.73;;;28.20;;
12719;SDS011;6424;48.520;11.228;2024-03-06T08:39:07;43.73;;;25.17;;
12719;SDS011;6424;48.520;11.228;2024-03-06T08:41:56;38.90;;;23.43;;
12719;SDS011;6424;48.520;11.228;2024-03-06T08:44:41;38.00;;;24.80;;
12719;SDS011;6424;48.520;11.228;2024-03-06T08:47:25;37.03;;;25.07;;
12719;SDS011;6424;48.520;11.228;2024-03-06T08:50:10;35.33;;;22.80;;
12719;SDS011;6424;48.520;11.228;2024-03-06T08:52:54;35.87;;;23.67;;
12719;SDS011;6424;48.520;11.228;2024-03-06T08:55:39;32.73;;;23.10;;
12719;SDS011;6424;48.520;11.228;2024-03-06T08:58:23;38.30;;;23.77;;
12719;SDS011;6424;48.520;11.228;2024-03-06T09:01:08;35.47;;;23.90;;
12719;SDS011;6424;48.520;11.228;2024-03-06T09:03:52;37.47;;;25.33;;
12719;SDS011;6424;48.520;11.228;2024-03-06T09:06:37;36.47;;;25.33;;
12719;SDS011;6424;48.520;11.228;2024-03-06T09:09:21;37.87;;;24.67;;
12719;SDS011;6424;48.520;11.228;2024-03-06T09:12:06;37.97;;;24.87;;
12719;SDS011;6424;48.520;11.228;2024-03-06T09:14:53;38.63;;;25.40;;
12719;SDS011;6424;48.520;11.228;2024-03-06T09:17:38;40.50;;;25.23;;
12719;SDS011;6424;48.520;11.228;2024-03-06T09:20:22;39.33;;;24.77;;
12719;SDS011;6424;48.520;11.228;2024-03-06T09:23:08;37.70;;;25.43;;
12719;SDS011;6424;48.520;11.228;2024-03-06T09:25:52;32.73;;;24.57;;
12719;SDS011;6424;48.520;11.228;2024-03-06T09:28:38;38.70;;;25.53;;
12719;SDS011;6424;48.520;11.228;2024-03-06T09:31:23;36.23;;;25.83;;
12719;SDS011;6424;48.520;11.228;2024-03-06T09:34:09;36.47;;;25.83;;
12719;SDS011;6424;48.520;11.228;2024-03-06T09:36:55;35.90;;;24.83;;
12719;SDS011;6424;48.520;11.228;2024-03-06T09:39:40;37.90;;;26.30;;
12719;SDS011;6424;48.520;11.228;2024-03-06T09:42:24;38.27;;;25.50;;
12719;SDS011;6424;48.520;11.228;2024-03-06T09:45:09;35.13;;;24.37;;
12719;SDS011;6424;48.520;11.228;2024-03-06T09:47:53;37.83;;;26.20;;
12719;SDS011;6424;48.520;11.228;2024-03-06T09:50:37;43.83;;;27.10;;
12719;SDS011;6424;48.520;11.228;2024-03-06T09:53:26;38.07;;;27.13;;
12719;SDS011;6424;48.520;11.228;2024-03-06T09:56:10;37.60;;;26.27;;
12719;SDS011;6424;48.520;11.228;2024-03-06T09:58:55;38.70;;;25.90;;
12719;SDS011;6424;48.520;11.228;2024-03-06T10:01:42;38.10;;;26.93;;
12719;SDS011;6424;48.520;11.228;2024-03-06T10:04:40;42.57;;;27.00;;
12719;SDS011;6424;48.520;11.228;2024-03-06T10:07:25;41.87;;;27.10;;
12719;SDS011;6424;48.520;11.228;2024-03-06T10:10:11;41.27;;;27.40;;
12719;SDS011;6424;48.520;11.228;2024-03-06T10:12:55;41.93;;;27.33;;
12719;SDS011;6424;48.520;11.228;2024-03-06T10:16:00;40.40;;;26.27;;
12719;SDS011;6424;48.520;11.228;2024-03-06T10:18:45;38.73;;;26.43;;
12719;SDS011;6424;48.520;11.228;2024-03-06T10:21:33;35.23;;;25.17;;
12719;SDS011;6424;48.520;11.228;2024-03-06T10:24:18;39.30;;;25.13;;
12719;SDS011;6424;48.520;11.228;2024-03-06T10:27:07;36.17;;;24.17;;
12719;SDS011;6424;48.520;11.228;2024-03-06T10:30:02;36.93;;;25.30;;
12719;SDS011;6424;48.520;11.228;2024-03-06T10:32:47;35.90;;;23.60;;
12719;SDS011;6424;48.520;11.228;2024-03-06T10:35:35;32.67;;;22.33;;
12719;SDS011;6424;48.520;11.228;2024-03-06T10:38:22;35.30;;;23.20;;
12719;SDS011;6424;48.520;11.228;2024-03-06T10:41:09;40.73;;;27.03;;
12719;SDS011;6424;48.520;11.228;2024-03-06T10:43:57;39.80;;;26.10;;
12719;SDS011;6424;48.520;11.228;2024-03-06T10:46:43;40.37;;;26.10;;
12719;SDS011;6424;48.520;11.228;2024-03-06T10:49:31;37.70;;;25.00;;
12719;SDS011;6424;48.520;11.228;2024-03-06T10:52:18;34.23;;;23.30;;
12719;SDS011;6424;48.520;11.228;2024-03-06T10:55:04;35.23;;;23.53;;
12719;SDS011;6424;48.520;11.228;2024-03-06T10:57:48;38.27;;;25.10;;
12719;SDS011;6424;48.520;11.228;2024-03-06T11:00:40;36.23;;;24.00;;
12719;SDS011;6424;48.520;11.228;2024-03-06T11:03:26;34.07;;;23.37;;
12719;SDS011;6424;48.520;11.228;2024-03-06T11:06:11;37.07;;;25.87;;
12719;SDS011;6424;48.520;11.228;2024-03-06T11:08:55;46.97;;;30.57;;
12719;SDS011;6424;48.520;11.228;2024-03-06T11:11:50;38.17;;;25.53;;
12719;SDS011;6424;48.520;11.228;2024-03-06T11:14:36;50.77;;;34.00;;
12719;SDS011;6424;48.520;11.228;2024-03-06T11:17:25;37.87;;;25.67;;
12719;SDS011;6424;48.520;11.228;2024-03-06T11:20:14;40.00;;;26.07;;
12719;SDS011;6424;48.520;11.228;2024-03-06T11:28:36;35.73;;;22.80;;
12719;SDS011;6424;48.520;11.228;2024-03-06T11:31:24;43.07;;;27.20;;
12719;SDS011;6424;48.520;11.228;2024-03-06T11:34:11;42.73;;;28.80;;
12719;SDS011;6424;48.520;11.228;2024-03-06T11:36:59;56.87;;;35.67;;
12719;SDS011;6424;48.520;11.228;2024-03-06T11:39:48;36.30;;;25.17;;
12719;SDS011;6424;48.520;11.228;2024-03-06T11:42:33;37.37;;;26.13;;
12719;SDS011;6424;48.520;11.228;2024-03-06T11:45:22;36.00;;;24.50;;
12719;SDS011;6424;48.520;11.228;2024-03-06T11:48:09;33.20;;;24.67;;
12719;SDS011;6424;48.520;11.228;2024-03-06T11:51:01;34.63;;;24.63;;
12719;SDS011;6424;48.520;11.228;2024-03-06T11:53:48;33.13;;;24.20;;
12719;SDS011;6424;48.520;11.228;2024-03-06T11:56:33;31.63;;;23.83;;
12719;SDS011;6424;48.520;11.228;2024-03-06T11:59:26;32.40;;;23.97;;
12719;SDS011;6424;48.520;11.228;2024-03-06T12:02:13;31.17;;;22.67;;
12719;SDS011;6424;48.520;11.228;2024-03-06T12:04:57;30.17;;;22.90;;
12719;SDS011;6424;48.520;11.228;2024-03-06T12:07:47;33.23;;;25.77;;
12719;SDS011;6424;48.520;11.228;2024-03-06T12:10:31;32.03;;;24.20;;
12719;SDS011;6424;48.520;11.228;2024-03-06T12:13:21;33.33;;;24.73;;
12719;SDS011;6424;48.520;11.228;2024-03-06T12:16:06;33.80;;;23.47;;
12719;SDS011;6424;48.520;11.228;2024-03-06T12:18:54;32.37;;;23.73;;
12719;SDS011;6424;48.520;11.228;2024-03-06T12:21:42;34.83;;;24.23;;
12719;SDS011;6424;48.520;11.228;2024-03-06T12:24:26;37.60;;;25.13;;
12719;SDS011;6424;48.520;11.228;2024-03-06T12:27:11;34.00;;;24.80;;
12719;SDS011;6424;48.520;11.228;2024-03-06T12:29:56;36.40;;;25.50;;
12719;SDS011;6424;48.520;11.228;2024-03-06T12:32:40;35.83;;;25.67;;
12719;SDS011;6424;48.520;11.228;2024-03-06T12:35:26;33.90;;;25.20;;
12719;SDS011;6424;48.520;11.228;2024-03-06T12:38:11;31.13;;;22.87;;
12719;SDS011;6424;48.520;11.228;2024-03-06T12:40:57;30.27;;;23.03;;
12719;SDS011;6424;48.520;11.228;2024-03-06T12:43:42;30.20;;;23.83;;
12719;SDS011;6424;48.520;11.228;2024-03-06T12:46:26;35.27;;;24.23;;
12719;SDS011;6424;48.520;11.228;2024-03-06T12:49:10;34.93;;;24.07;;
12719;SDS011;6424;48.520;11.228;2024-03-06T12:51:55;51.40;;;37.33;;
12719;SDS011;6424;48.520;11.228;2024-03-06T12:54:39;32.10;;;23.90;;
12719;SDS011;6424;48.520;11.228;2024-03-06T12:57:24;32.13;;;24.23;;
12719;SDS011;6424;48.520;11.228;2024-03-06T13:00:08;34.90;;;25.40;;
12719;SDS011;6424;48.520;11.228;2024-03-06T13:02:59;36.13;;;24.73;;
12719;SDS011;6424;48.520;11.228;2024-03-06T13:05:43;34.60;;;25.53;;
12719;SDS011;6424;48.520;11.228;2024-03-06T13:08:28;39.83;;;27.83;;
12719;SDS011;6424;48.520;11.228;2024-03-06T13:11:12;37.50;;;26.63;;
12719;SDS011;6424;48.520;11.228;2024-03-06T13:13:56;37.27;;;25.63;;
12719;SDS011;6424;48.520;11.228;2024-03-06T13:16:41;39.37;;;25.33;;
12719;SDS011;6424;48.520;11.228;2024-03-06T13:19:25;36.37;;;25.13;;
12719;SDS011;6424;48.520;11.228;2024-03-06T13:22:10;36.23;;;25.43;;
12719;SDS011;6424;48.520;11.228;2024-03-06T13:24:54;31.67;;;23.03;;
12719;SDS011;6424;48.520;11.228;2024-03-06T13:27:41;37.63;;;25.70;;
12719;SDS011;6424;48.520;11.228;2024-03-06T13:30:25;35.90;;;23.63;;
12719;SDS011;6424;48.520;11.228;2024-03-06T13:33:09;34.87;;;24.30;;
12719;SDS011;6424;48.520;11.228;2024-03-06T13:35:54;33.50;;;22.20;;
12719;SDS011;6424;48.520;11.228;2024-03-06T13:38:39;31.70;;;23.50;;
12719;SDS011;6424;48.520;11.228;2024-03-06T13:41:25;33.57;;;24.63;;
12719;SDS011;6424;48.520;11.228;2024-03-06T13:44:09;32.40;;;22.83;;
12719;SDS011;6424;48.520;11.228;2024-03-06T13:46:54;28.67;;;21.83;;
12719;SDS011;6424;48.520;11.228;2024-03-06T13:49:39;31.70;;;23.20;;
12719;SDS011;6424;48.520;11.228;2024-03-06T13:52:24;18.47;;;14.60;;
12719;SDS011;6424;48.520;11.228;2024-03-06T13:55:09;19.57;;;14.97;;
12719;SDS011;6424;48.520;11.228;2024-03-06T13:57:54;18.20;;;14.80;;
12719;SDS011;6424;48.520;11.228;2024-03-06T14:00:38;21.70;;;16.27;;
12719;SDS011;6424;48.520;11.228;2024-03-06T14:03:22;21.60;;;15.80;;
12719;SDS011;6424;48.520;11.228;2024-03-06T14:06:08;21.73;;;15.43;;
12719;SDS011;6424;48.520;11.228;2024-03-06T14:08:53;21.97;;;16.10;;
12719;SDS011;6424;48.520;11.228;2024-03-06T14:11:38;23.20;;;19.43;;
12719;SDS011;6424;48.520;11.228;2024-03-06T14:14:23;24.73;;;16.67;;
12719;SDS011;6424;48.520;11.228;2024-03-06T14:17:08;22.80;;;17.07;;
12719;SDS011;6424;48.520;11.228;2024-03-06T14:19:52;23.60;;;17.00;;
12719;SDS011;6424;48.520;11.228;2024-03-06T14:22:37;21.10;;;16.60;;
12719;SDS011;6424;48.520;11.228;2024-03-06T14:25:21;21.83;;;16.20;;
12719;SDS011;6424;48.520;11.228;2024-03-06T14:28:06;24.53;;;16.93;;
12719;SDS011;6424;48.520;11.228;2024-03-06T14:30:50;26.80;;;20.83;;
12719;SDS011;6424;48.520;11.228;2024-03-06T14:33:34;22.80;;;16.73;;
12719;SDS011;6424;48.520;11.228;2024-03-06T14:36:20;27.90;;;17.77;;
12719;SDS011;6424;48.520;11.228;2024-03-06T14:39:05;23.97;;;17.60;;
12719;SDS011;6424;48.520;11.228;2024-03-06T14:41:51;24.50;;;17.77;;
12719;SDS011;6424;48.520;11.228;2024-03-06T14:44:36;23.23;;;17.60;;
12719;SDS011;6424;48.520;11.228;2024-03-06T14:47:20;25.03;;;17.33;;
12719;SDS011;6424;48.520;11.228;2024-03-06T14:50:05;24.80;;;17.87;;
12719;SDS011;6424;48.520;11.228;2024-03-06T14:52:49;22.97;;;18.03;;
12719;SDS011;6424;48.520;11.228;2024-03-06T14:55:33;22.60;;;17.40;;
12719;SDS011;6424;48.520;11.228;2024-03-06T14:58:18;26.23;;;18.63;;
12719;SDS011;6424;48.520;11.228;2024-03-06T15:01:02;22.53;;;16.47;;
12719;SDS011;6424;48.520;11.228;2024-03-06T15:03:47;21.67;;;15.97;;
12719;SDS011;6424;48.520;11.228;2024-03-06T15:06:31;25.10;;;17.33;;
12719;SDS011;6424;48.520;11.228;2024-03-06T15:09:17;25.33;;;17.80;;
12719;SDS011;6424;48.520;11.228;2024-03-06T15:12:05;25.47;;;18.10;;
12719;SDS011;6424;48.520;11.228;2024-03-06T15:14:50;25.37;;;18.73;;
12719;SDS011;6424;48.520;11.228;2024-03-06T15:17:35;26.37;;;18.87;;
12719;SDS011;6424;48.520;11.228;2024-03-06T15:20:22;25.63;;;17.73;;
12719;SDS011;6424;48.520;11.228;2024-03-06T15:23:07;26.87;;;18.57;;
12719;SDS011;6424;48.520;11.228;2024-03-06T15:25:51;26.80;;;18.67;;
12719;SDS011;6424;48.520;11.228;2024-03-06T15:28:36;29.17;;;19.03;;
12719;SDS011;6424;48.520;11.228;2024-03-06T15:31:20;29.63;;;19.77;;
12719;SDS011;6424;48.520;11.228;2024-03-06T15:34:05;27.57;;;19.93;;
12719;SDS011;6424;48.520;11.228;2024-03-06T15:36:49;27.97;;;20.13;;
12719;SDS011;6424;48.520;11.228;2024-03-06T15:39:33;28.17;;;18.73;;
12719;SDS011;6424;48.520;11.228;2024-03-06T15:42:18;27.70;;;19.70;;
12719;SDS011;6424;48.520;11.228;2024-03-06T15:45:03;31.97;;;19.10;;
12719;SDS011;6424;48.520;11.228;2024-03-06T15:47:49;30.27;;;19.67;;
12719;SDS011;6424;48.520;11.228;2024-03-06T15:50:33;27.07;;;19.27;;
12719;SDS011;6424;48.520;11.228;2024-03-06T15:53:17;26.57;;;18.33;;
12719;SDS011;6424;48.520;11.228;2024-03-06T15:56:02;26.93;;;19.13;;
12719;SDS011;6424;48.520;11.228;2024-03-06T15:58:47;26.77;;;18.47;;
12719;SDS011;6424;48.520;11.228;2024-03-06T16:01:31;25.47;;;18.13;;
12719;SDS011;6424;48.520;11.228;2024-03-06T16:04:15;31.03;;;19.73;;
12719;SDS011;6424;48.520;11.228;2024-03-06T16:07:01;28.37;;;19.70;;
12719;SDS011;6424;48.520;11.228;2024-03-06T16:09:45;28.20;;;19.53;;
12719;SDS011;6424;48.520;11.228;2024-03-06T16:12:30;28.30;;;20.57;;